This is the latest recevied weather packets stored in our database for station/object OH2HCY. If no packets are shown the sender has not sent any weather packets the latest 10 day(s).
| Time | Temp. | Humidity | Pressure | Rain* | Wind** | Luminosity | Snow |
|---|---|---|---|---|---|---|---|
| 1777800135 | 12.78° C | 60% | 1003.6 hPa | - | - | - | - |
| 1777799630 | 12.78° C | 61% | 1003.7 hPa | - | - | - | - |
| 1777799080 | 12.22° C | 62% | 1003.8 hPa | - | - | - | - |
| 1777798555 | 12.22° C | 62% | 1003.7 hPa | - | - | - | - |
| 1777798000 | 12.22° C | 61% | 1003.6 hPa | - | - | - | - |
| 1777797445 | 12.22° C | 61% | 1003.6 hPa | - | - | - | - |
| 1777796915 | 12.78° C | 61% | 1003.4 hPa | - | - | - | - |
| 1777796375 | 12.22° C | 62% | 1003.4 hPa | - | - | - | - |
| 1777795805 | 12.22° C | 61% | 1003.3 hPa | - | - | - | - |
| 1777795242 | 12.22° C | 61% | 1003.2 hPa | - | - | - | - |
| 1777794665 | 12.22° C | 62% | 1003.2 hPa | - | - | - | - |
| 1777794120 | 11.11° C | 65% | 1003.5 hPa | - | - | - | - |
| 1777793585 | 11.11° C | 65% | 1003.6 hPa | - | - | - | - |
| 1777793045 | 10.56° C | 67% | 1003.9 hPa | - | - | - | - |
| 1777792510 | 10.56° C | 69% | 1004 hPa | - | - | - | - |
| 1777792004 | 10.56° C | 68% | 1004.1 hPa | - | - | - | - |
| 1777791480 | 10.56° C | 66% | 1004.1 hPa | - | - | - | - |
| 1777790969 | 10.56° C | 66% | 1003.9 hPa | - | - | - | - |
| 1777790445 | 10.56° C | 65% | 1003.7 hPa | - | - | - | - |
| 1777789900 | 10.56° C | 64% | 1003.7 hPa | - | - | - | - |
| 1777789365 | 10° C | 64% | 1003.3 hPa | - | - | - | - |
| 1777788805 | 10° C | 63% | 1003.1 hPa | - | - | - | - |
| 1777788260 | 10° C | 65% | 1003.4 hPa | - | - | - | - |
| 1777787700 | 9.44° C | 67% | 1003.5 hPa | - | - | - | - |
| 1777787165 | 9.44° C | 68% | 1003.6 hPa | - | - | - | - |
* Rain since midnight (hover to see other rain measurements)
** Current wind speed in m/s (hover to see current wind gust speed)